sensor_id;sensor_type;location;lat;lon;timestamp;P1;durP1;ratioP1;P2;durP2;ratioP2
13347;SDS011;6743;49.934;9.138;2022-10-23T00:00:26;1.17;;;0.80;;
13347;SDS011;6743;49.934;9.138;2022-10-23T00:02:52;1.08;;;1.08;;
13347;SDS011;6743;49.934;9.138;2022-10-23T00:05:19;1.00;;;1.00;;
13347;SDS011;6743;49.934;9.138;2022-10-23T00:07:48;0.88;;;0.88;;
13347;SDS011;6743;49.934;9.138;2022-10-23T00:10:16;1.02;;;0.98;;
13347;SDS011;6743;49.934;9.138;2022-10-23T00:12:42;0.88;;;0.88;;
13347;SDS011;6743;49.934;9.138;2022-10-23T00:15:10;1.20;;;1.10;;
13347;SDS011;6743;49.934;9.138;2022-10-23T00:17:36;1.20;;;1.20;;
13347;SDS011;6743;49.934;9.138;2022-10-23T00:20:03;1.65;;;1.12;;
13347;SDS011;6743;49.934;9.138;2022-10-23T00:22:30;0.90;;;0.90;;
13347;SDS011;6743;49.934;9.138;2022-10-23T00:24:58;0.85;;;0.85;;
13347;SDS011;6743;49.934;9.138;2022-10-23T00:27:24;1.40;;;1.30;;
13347;SDS011;6743;49.934;9.138;2022-10-23T00:29:53;0.90;;;0.90;;
13347;SDS011;6743;49.934;9.138;2022-10-23T00:32:19;1.20;;;1.10;;
13347;SDS011;6743;49.934;9.138;2022-10-23T00:34:45;1.05;;;1.02;;
13347;SDS011;6743;49.934;9.138;2022-10-23T00:37:11;1.40;;;1.30;;
13347;SDS011;6743;49.934;9.138;2022-10-23T00:39:37;1.52;;;1.35;;
13347;SDS011;6743;49.934;9.138;2022-10-23T00:42:04;0.88;;;0.85;;
13347;SDS011;6743;49.934;9.138;2022-10-23T00:47:34;0.85;;;0.85;;
13347;SDS011;6743;49.934;9.138;2022-10-23T00:50:00;1.02;;;0.80;;
13347;SDS011;6743;49.934;9.138;2022-10-23T00:52:26;1.15;;;1.15;;
13347;SDS011;6743;49.934;9.138;2022-10-23T00:54:52;0.95;;;0.95;;
13347;SDS011;6743;49.934;9.138;2022-10-23T00:57:19;0.88;;;0.88;;
13347;SDS011;6743;49.934;9.138;2022-10-23T00:59:45;0.85;;;0.85;;
13347;SDS011;6743;49.934;9.138;2022-10-23T01:02:11;0.70;;;0.70;;
13347;SDS011;6743;49.934;9.138;2022-10-23T01:04:40;1.27;;;1.17;;
13347;SDS011;6743;49.934;9.138;2022-10-23T01:07:07;1.02;;;0.93;;
13347;SDS011;6743;49.934;9.138;2022-10-23T01:09:41;0.70;;;0.70;;
13347;SDS011;6743;49.934;9.138;2022-10-23T01:12:18;1.42;;;0.85;;
13347;SDS011;6743;49.934;9.138;2022-10-23T01:14:54;0.95;;;0.90;;
13347;SDS011;6743;49.934;9.138;2022-10-23T01:17:28;0.80;;;0.80;;
13347;SDS011;6743;49.934;9.138;2022-10-23T01:20:08;0.70;;;0.70;;
13347;SDS011;6743;49.934;9.138;2022-10-23T01:25:34;1.10;;;0.80;;
13347;SDS011;6743;49.934;9.138;2022-10-23T01:28:22;0.98;;;0.98;;
13347;SDS011;6743;49.934;9.138;2022-10-23T01:30:52;0.75;;;0.75;;
13347;SDS011;6743;49.934;9.138;2022-10-23T01:33:23;0.57;;;0.57;;
13347;SDS011;6743;49.934;9.138;2022-10-23T01:35:52;0.82;;;0.60;;
13347;SDS011;6743;49.934;9.138;2022-10-23T01:38:22;1.23;;;0.85;;
13347;SDS011;6743;49.934;9.138;2022-10-23T01:40:54;1.12;;;0.80;;
13347;SDS011;6743;49.934;9.138;2022-10-23T01:43:27;0.80;;;0.80;;
13347;SDS011;6743;49.934;9.138;2022-10-23T01:45:58;1.15;;;1.02;;
13347;SDS011;6743;49.934;9.138;2022-10-23T01:48:27;0.73;;;0.73;;
13347;SDS011;6743;49.934;9.138;2022-10-23T01:50:56;0.50;;;0.50;;
13347;SDS011;6743;49.934;9.138;2022-10-23T01:53:24;1.15;;;1.05;;
13347;SDS011;6743;49.934;9.138;2022-10-23T01:55:54;0.73;;;0.73;;
13347;SDS011;6743;49.934;9.138;2022-10-23T01:58:22;0.85;;;0.85;;
13347;SDS011;6743;49.934;9.138;2022-10-23T02:00:51;0.80;;;0.80;;
13347;SDS011;6743;49.934;9.138;2022-10-23T02:03:21;1.45;;;0.82;;
13347;SDS011;6743;49.934;9.138;2022-10-23T02:05:48;1.00;;;0.90;;
13347;SDS011;6743;49.934;9.138;2022-10-23T02:08:14;0.90;;;0.90;;
13347;SDS011;6743;49.934;9.138;2022-10-23T02:10:43;0.60;;;0.60;;
13347;SDS011;6743;49.934;9.138;2022-10-23T02:13:15;0.95;;;0.95;;
13347;SDS011;6743;49.934;9.138;2022-10-23T02:15:48;1.37;;;0.70;;
13347;SDS011;6743;49.934;9.138;2022-10-23T02:18:22;1.02;;;0.80;;
13347;SDS011;6743;49.934;9.138;2022-10-23T02:20:59;0.82;;;0.82;;
13347;SDS011;6743;49.934;9.138;2022-10-23T02:23:33;0.73;;;0.73;;
13347;SDS011;6743;49.934;9.138;2022-10-23T02:26:04;0.85;;;0.82;;
13347;SDS011;6743;49.934;9.138;2022-10-23T02:28:33;0.60;;;0.60;;
13347;SDS011;6743;49.934;9.138;2022-10-23T02:31:04;0.75;;;0.73;;
13347;SDS011;6743;49.934;9.138;2022-10-23T02:33:38;0.52;;;0.52;;
13347;SDS011;6743;49.934;9.138;2022-10-23T02:36:05;0.93;;;0.93;;
13347;SDS011;6743;49.934;9.138;2022-10-23T02:38:33;0.80;;;0.80;;
13347;SDS011;6743;49.934;9.138;2022-10-23T02:41:04;0.70;;;0.70;;
13347;SDS011;6743;49.934;9.138;2022-10-23T02:43:40;0.75;;;0.75;;
13347;SDS011;6743;49.934;9.138;2022-10-23T02:46:13;0.70;;;0.70;;
13347;SDS011;6743;49.934;9.138;2022-10-23T02:48:47;0.80;;;0.80;;
13347;SDS011;6743;49.934;9.138;2022-10-23T02:51:20;0.80;;;0.80;;
13347;SDS011;6743;49.934;9.138;2022-10-23T02:53:51;1.00;;;1.00;;
13347;SDS011;6743;49.934;9.138;2022-10-23T02:56:27;0.95;;;0.88;;
13347;SDS011;6743;49.934;9.138;2022-10-23T02:59:02;1.48;;;1.37;;
13347;SDS011;6743;49.934;9.138;2022-10-23T03:01:36;1.00;;;1.00;;
13347;SDS011;6743;49.934;9.138;2022-10-23T03:04:07;0.98;;;0.93;;
13347;SDS011;6743;49.934;9.138;2022-10-23T03:06:35;1.10;;;1.10;;
13347;SDS011;6743;49.934;9.138;2022-10-23T03:09:02;1.17;;;1.00;;
13347;SDS011;6743;49.934;9.138;2022-10-23T03:11:29;0.98;;;0.98;;
13347;SDS011;6743;49.934;9.138;2022-10-23T03:13:55;0.90;;;0.90;;
13347;SDS011;6743;49.934;9.138;2022-10-23T03:16:21;0.88;;;0.88;;
13347;SDS011;6743;49.934;9.138;2022-10-23T03:18:47;0.98;;;0.98;;
13347;SDS011;6743;49.934;9.138;2022-10-23T03:21:14;0.88;;;0.88;;
13347;SDS011;6743;49.934;9.138;2022-10-23T03:23:40;1.10;;;0.98;;
13347;SDS011;6743;49.934;9.138;2022-10-23T03:26:06;0.80;;;0.80;;
13347;SDS011;6743;49.934;9.138;2022-10-23T03:28:32;0.60;;;0.60;;
13347;SDS011;6743;49.934;9.138;2022-10-23T03:30:59;0.75;;;0.75;;
13347;SDS011;6743;49.934;9.138;2022-10-23T03:33:26;0.70;;;0.70;;
13347;SDS011;6743;49.934;9.138;2022-10-23T03:35:52;0.80;;;0.80;;
13347;SDS011;6743;49.934;9.138;2022-10-23T03:38:18;0.55;;;0.50;;
13347;SDS011;6743;49.934;9.138;2022-10-23T03:40:44;0.70;;;0.70;;
13347;SDS011;6743;49.934;9.138;2022-10-23T03:43:10;0.82;;;0.82;;
13347;SDS011;6743;49.934;9.138;2022-10-23T03:45:36;0.82;;;0.82;;
13347;SDS011;6743;49.934;9.138;2022-10-23T03:48:02;0.90;;;0.90;;
13347;SDS011;6743;49.934;9.138;2022-10-23T03:50:29;2.15;;;1.35;;
13347;SDS011;6743;49.934;9.138;2022-10-23T03:52:54;0.90;;;0.90;;
13347;SDS011;6743;49.934;9.138;2022-10-23T03:55:21;1.17;;;1.08;;
13347;SDS011;6743;49.934;9.138;2022-10-23T03:57:49;0.95;;;0.95;;
13347;SDS011;6743;49.934;9.138;2022-10-23T04:00:15;0.80;;;0.80;;
13347;SDS011;6743;49.934;9.138;2022-10-23T04:02:42;0.60;;;0.60;;
13347;SDS011;6743;49.934;9.138;2022-10-23T04:05:08;0.90;;;0.90;;
13347;SDS011;6743;49.934;9.138;2022-10-23T04:07:34;0.70;;;0.70;;
13347;SDS011;6743;49.934;9.138;2022-10-23T04:10:00;2.50;;;1.00;;
13347;SDS011;6743;49.934;9.138;2022-10-23T04:12:27;0.60;;;0.60;;
13347;SDS011;6743;49.934;9.138;2022-10-23T04:14:53;2.92;;;0.95;;
13347;SDS011;6743;49.934;9.138;2022-10-23T04:17:19;0.70;;;0.70;;
13347;SDS011;6743;49.934;9.138;2022-10-23T04:19:45;0.80;;;0.80;;
13347;SDS011;6743;49.934;9.138;2022-10-23T04:22:11;2.37;;;1.00;;
13347;SDS011;6743;49.934;9.138;2022-10-23T04:24:36;1.27;;;1.10;;
13347;SDS011;6743;49.934;9.138;2022-10-23T04:27:03;1.23;;;0.93;;
13347;SDS011;6743;49.934;9.138;2022-10-23T04:29:29;0.75;;;0.75;;
13347;SDS011;6743;49.934;9.138;2022-10-23T04:31:56;1.25;;;0.88;;
13347;SDS011;6743;49.934;9.138;2022-10-23T04:34:23;0.93;;;0.90;;
13347;SDS011;6743;49.934;9.138;2022-10-23T04:36:49;0.68;;;0.68;;
13347;SDS011;6743;49.934;9.138;2022-10-23T04:39:14;0.70;;;0.70;;
13347;SDS011;6743;49.934;9.138;2022-10-23T04:41:40;1.00;;;1.00;;
13347;SDS011;6743;49.934;9.138;2022-10-23T04:44:06;1.10;;;1.00;;
13347;SDS011;6743;49.934;9.138;2022-10-23T04:46:33;1.00;;;1.00;;
13347;SDS011;6743;49.934;9.138;2022-10-23T04:48:59;0.80;;;0.80;;
13347;SDS011;6743;49.934;9.138;2022-10-23T04:51:25;1.58;;;1.12;;
13347;SDS011;6743;49.934;9.138;2022-10-23T04:53:51;1.00;;;1.00;;
13347;SDS011;6743;49.934;9.138;2022-10-23T04:56:17;0.80;;;0.80;;
13347;SDS011;6743;49.934;9.138;2022-10-23T04:58:43;0.82;;;0.82;;
13347;SDS011;6743;49.934;9.138;2022-10-23T05:01:09;0.80;;;0.80;;
13347;SDS011;6743;49.934;9.138;2022-10-23T05:03:36;0.98;;;0.98;;
13347;SDS011;6743;49.934;9.138;2022-10-23T05:06:02;0.70;;;0.70;;
13347;SDS011;6743;49.934;9.138;2022-10-23T05:08:29;1.15;;;1.02;;
13347;SDS011;6743;49.934;9.138;2022-10-23T05:10:55;1.00;;;1.00;;
13347;SDS011;6743;49.934;9.138;2022-10-23T05:13:21;1.15;;;0.88;;
13347;SDS011;6743;49.934;9.138;2022-10-23T05:15:48;1.17;;;1.17;;
13347;SDS011;6743;49.934;9.138;2022-10-23T05:18:15;0.70;;;0.70;;
13347;SDS011;6743;49.934;9.138;2022-10-23T05:20:46;1.00;;;1.00;;
13347;SDS011;6743;49.934;9.138;2022-10-23T05:23:15;1.37;;;0.93;;
13347;SDS011;6743;49.934;9.138;2022-10-23T05:25:44;2.05;;;0.85;;
13347;SDS011;6743;49.934;9.138;2022-10-23T05:28:10;0.57;;;0.57;;
13347;SDS011;6743;49.934;9.138;2022-10-23T05:30:36;0.80;;;0.80;;
13347;SDS011;6743;49.934;9.138;2022-10-23T05:33:03;0.90;;;0.90;;
13347;SDS011;6743;49.934;9.138;2022-10-23T05:35:29;1.08;;;0.80;;
13347;SDS011;6743;49.934;9.138;2022-10-23T05:37:56;1.10;;;1.10;;
13347;SDS011;6743;49.934;9.138;2022-10-23T05:40:24;0.93;;;0.88;;
13347;SDS011;6743;49.934;9.138;2022-10-23T05:42:50;1.98;;;1.35;;
13347;SDS011;6743;49.934;9.138;2022-10-23T05:45:16;1.80;;;1.20;;
13347;SDS011;6743;49.934;9.138;2022-10-23T05:47:43;1.23;;;1.12;;
13347;SDS011;6743;49.934;9.138;2022-10-23T05:50:09;0.88;;;0.88;;
13347;SDS011;6743;49.934;9.138;2022-10-23T05:52:35;1.67;;;1.37;;
13347;SDS011;6743;49.934;9.138;2022-10-23T05:55:02;0.90;;;0.90;;
13347;SDS011;6743;49.934;9.138;2022-10-23T05:57:30;1.02;;;1.02;;
13347;SDS011;6743;49.934;9.138;2022-10-23T05:59:57;1.12;;;1.05;;
13347;SDS011;6743;49.934;9.138;2022-10-23T06:02:23;0.73;;;0.73;;
13347;SDS011;6743;49.934;9.138;2022-10-23T06:04:49;1.15;;;0.80;;
13347;SDS011;6743;49.934;9.138;2022-10-23T06:07:15;0.95;;;0.95;;
13347;SDS011;6743;49.934;9.138;2022-10-23T06:09:41;1.00;;;1.00;;
13347;SDS011;6743;49.934;9.138;2022-10-23T06:12:07;1.30;;;1.25;;
13347;SDS011;6743;49.934;9.138;2022-10-23T06:14:33;1.48;;;1.23;;
13347;SDS011;6743;49.934;9.138;2022-10-23T06:16:59;0.80;;;0.80;;
13347;SDS011;6743;49.934;9.138;2022-10-23T06:19:25;0.90;;;0.80;;
13347;SDS011;6743;49.934;9.138;2022-10-23T06:21:51;0.90;;;0.90;;
13347;SDS011;6743;49.934;9.138;2022-10-23T06:24:17;1.27;;;1.17;;
13347;SDS011;6743;49.934;9.138;2022-10-23T06:26:43;1.92;;;1.12;;
13347;SDS011;6743;49.934;9.138;2022-10-23T06:29:10;0.85;;;0.85;;
13347;SDS011;6743;49.934;9.138;2022-10-23T06:31:36;1.17;;;1.15;;
13347;SDS011;6743;49.934;9.138;2022-10-23T06:34:02;0.90;;;0.90;;
13347;SDS011;6743;49.934;9.138;2022-10-23T06:36:28;1.00;;;1.00;;
13347;SDS011;6743;49.934;9.138;2022-10-23T06:38:54;0.95;;;0.75;;
13347;SDS011;6743;49.934;9.138;2022-10-23T06:41:21;1.30;;;1.20;;
13347;SDS011;6743;49.934;9.138;2022-10-23T06:43:47;0.80;;;0.75;;
13347;SDS011;6743;49.934;9.138;2022-10-23T06:46:15;1.15;;;1.15;;
13347;SDS011;6743;49.934;9.138;2022-10-23T06:48:42;1.30;;;1.00;;
13347;SDS011;6743;49.934;9.138;2022-10-23T06:51:10;0.82;;;0.82;;
13347;SDS011;6743;49.934;9.138;2022-10-23T06:53:38;1.60;;;1.50;;
13347;SDS011;6743;49.934;9.138;2022-10-23T06:56:04;1.10;;;1.05;;
13347;SDS011;6743;49.934;9.138;2022-10-23T06:58:32;1.27;;;1.17;;
13347;SDS011;6743;49.934;9.138;2022-10-23T07:00:58;0.93;;;0.93;;
13347;SDS011;6743;49.934;9.138;2022-10-23T07:03:25;1.08;;;1.08;;
13347;SDS011;6743;49.934;9.138;2022-10-23T07:05:51;1.30;;;1.20;;
13347;SDS011;6743;49.934;9.138;2022-10-23T07:08:17;3.95;;;1.33;;
13347;SDS011;6743;49.934;9.138;2022-10-23T07:10:43;0.80;;;0.80;;
13347;SDS011;6743;49.934;9.138;2022-10-23T07:13:09;1.87;;;1.77;;
13347;SDS011;6743;49.934;9.138;2022-10-23T07:15:36;2.05;;;1.85;;
13347;SDS011;6743;49.934;9.138;2022-10-23T07:18:02;2.30;;;2.05;;
13347;SDS011;6743;49.934;9.138;2022-10-23T07:20:29;2.47;;;2.30;;
13347;SDS011;6743;49.934;9.138;2022-10-23T07:22:55;2.65;;;2.00;;
13347;SDS011;6743;49.934;9.138;2022-10-23T07:25:22;2.83;;;2.20;;
13347;SDS011;6743;49.934;9.138;2022-10-23T07:27:49;2.05;;;1.87;;
13347;SDS011;6743;49.934;9.138;2022-10-23T07:30:16;1.80;;;1.70;;
13347;SDS011;6743;49.934;9.138;2022-10-23T07:32:43;1.33;;;1.23;;
13347;SDS011;6743;49.934;9.138;2022-10-23T07:35:09;1.50;;;1.40;;
13347;SDS011;6743;49.934;9.138;2022-10-23T07:37:37;1.83;;;1.45;;
13347;SDS011;6743;49.934;9.138;2022-10-23T07:40:03;1.37;;;1.20;;
13347;SDS011;6743;49.934;9.138;2022-10-23T07:42:30;1.40;;;1.30;;
13347;SDS011;6743;49.934;9.138;2022-10-23T07:44:56;1.55;;;1.45;;
13347;SDS011;6743;49.934;9.138;2022-10-23T07:47:23;1.60;;;1.50;;
13347;SDS011;6743;49.934;9.138;2022-10-23T07:49:49;1.45;;;1.27;;
13347;SDS011;6743;49.934;9.138;2022-10-23T07:52:15;1.30;;;1.20;;
13347;SDS011;6743;49.934;9.138;2022-10-23T07:54:41;0.82;;;0.82;;
13347;SDS011;6743;49.934;9.138;2022-10-23T07:57:07;1.20;;;1.20;;
13347;SDS011;6743;49.934;9.138;2022-10-23T07:59:36;1.17;;;1.17;;
13347;SDS011;6743;49.934;9.138;2022-10-23T08:02:02;1.65;;;1.55;;
13347;SDS011;6743;49.934;9.138;2022-10-23T08:04:28;1.33;;;1.23;;
13347;SDS011;6743;49.934;9.138;2022-10-23T08:06:54;1.30;;;1.20;;
13347;SDS011;6743;49.934;9.138;2022-10-23T08:09:20;1.50;;;1.40;;
13347;SDS011;6743;49.934;9.138;2022-10-23T08:11:47;1.48;;;1.37;;
13347;SDS011;6743;49.934;9.138;2022-10-23T08:14:13;1.60;;;1.50;;
13347;SDS011;6743;49.934;9.138;2022-10-23T08:16:39;1.12;;;1.12;;
13347;SDS011;6743;49.934;9.138;2022-10-23T08:19:05;1.05;;;1.05;;
13347;SDS011;6743;49.934;9.138;2022-10-23T08:21:32;1.50;;;1.40;;
13347;SDS011;6743;49.934;9.138;2022-10-23T08:23:58;1.10;;;1.00;;
13347;SDS011;6743;49.934;9.138;2022-10-23T08:26:25;1.50;;;1.40;;
13347;SDS011;6743;49.934;9.138;2022-10-23T08:28:54;1.50;;;1.40;;
13347;SDS011;6743;49.934;9.138;2022-10-23T08:31:20;1.42;;;1.40;;
13347;SDS011;6743;49.934;9.138;2022-10-23T08:33:47;1.50;;;1.40;;
13347;SDS011;6743;49.934;9.138;2022-10-23T08:36:14;1.92;;;1.80;;
13347;SDS011;6743;49.934;9.138;2022-10-23T08:38:42;1.70;;;1.60;;
13347;SDS011;6743;49.934;9.138;2022-10-23T08:41:11;1.40;;;1.35;;
13347;SDS011;6743;49.934;9.138;2022-10-23T08:43:47;1.10;;;1.10;;
13347;SDS011;6743;49.934;9.138;2022-10-23T08:46:19;1.25;;;1.25;;
13347;SDS011;6743;49.934;9.138;2022-10-23T08:48:50;1.50;;;1.40;;
13347;SDS011;6743;49.934;9.138;2022-10-23T08:51:22;1.73;;;1.35;;
13347;SDS011;6743;49.934;9.138;2022-10-23T08:53:55;1.20;;;1.17;;
13347;SDS011;6743;49.934;9.138;2022-10-23T08:56:26;1.42;;;1.33;;
13347;SDS011;6743;49.934;9.138;2022-10-23T08:58:59;1.40;;;1.30;;
13347;SDS011;6743;49.934;9.138;2022-10-23T09:01:35;1.15;;;1.10;;
13347;SDS011;6743;49.934;9.138;2022-10-23T09:04:03;1.25;;;1.25;;
13347;SDS011;6743;49.934;9.138;2022-10-23T09:06:33;1.23;;;1.20;;
13347;SDS011;6743;49.934;9.138;2022-10-23T09:09:07;1.48;;;1.37;;
13347;SDS011;6743;49.934;9.138;2022-10-23T09:12:04;1.50;;;1.30;;
13347;SDS011;6743;49.934;9.138;2022-10-23T09:17:24;1.90;;;1.80;;
13347;SDS011;6743;49.934;9.138;2022-10-23T09:19:53;1.33;;;1.23;;
13347;SDS011;6743;49.934;9.138;2022-10-23T09:22:26;2.50;;;1.83;;
13347;SDS011;6743;49.934;9.138;2022-10-23T09:24:52;1.48;;;1.37;;
13347;SDS011;6743;49.934;9.138;2022-10-23T09:27:18;1.73;;;1.62;;
13347;SDS011;6743;49.934;9.138;2022-10-23T09:29:48;1.40;;;1.30;;
13347;SDS011;6743;49.934;9.138;2022-10-23T09:32:18;2.05;;;1.48;;
13347;SDS011;6743;49.934;9.138;2022-10-23T09:34:49;1.83;;;1.50;;
13347;SDS011;6743;49.934;9.138;2022-10-23T09:37:20;1.62;;;1.52;;
13347;SDS011;6743;49.934;9.138;2022-10-23T09:39:47;1.40;;;1.30;;
13347;SDS011;6743;49.934;9.138;2022-10-23T09:42:20;1.90;;;1.70;;
13347;SDS011;6743;49.934;9.138;2022-10-23T09:44:48;1.35;;;1.25;;
13347;SDS011;6743;49.934;9.138;2022-10-23T09:47:16;1.70;;;1.60;;
13347;SDS011;6743;49.934;9.138;2022-10-23T09:49:45;1.30;;;1.20;;
13347;SDS011;6743;49.934;9.138;2022-10-23T09:52:22;1.60;;;1.50;;
13347;SDS011;6743;49.934;9.138;2022-10-23T09:54:52;1.70;;;1.60;;
13347;SDS011;6743;49.934;9.138;2022-10-23T09:57:21;1.37;;;1.27;;
13347;SDS011;6743;49.934;9.138;2022-10-23T09:59:52;1.30;;;1.23;;
13347;SDS011;6743;49.934;9.138;2022-10-23T10:02:21;1.35;;;1.25;;
13347;SDS011;6743;49.934;9.138;2022-10-23T10:04:51;1.37;;;1.27;;
13347;SDS011;6743;49.934;9.138;2022-10-23T10:07:18;1.90;;;1.50;;
13347;SDS011;6743;49.934;9.138;2022-10-23T10:09:46;1.50;;;1.40;;
13347;SDS011;6743;49.934;9.138;2022-10-23T10:15:10;1.62;;;1.50;;
13347;SDS011;6743;49.934;9.138;2022-10-23T10:17:46;1.30;;;1.20;;
13347;SDS011;6743;49.934;9.138;2022-10-23T10:20:30;1.50;;;1.40;;
13347;SDS011;6743;49.934;9.138;2022-10-23T10:23:11;1.35;;;1.27;;
13347;SDS011;6743;49.934;9.138;2022-10-23T10:25:43;1.73;;;1.55;;
13347;SDS011;6743;49.934;9.138;2022-10-23T10:28:19;1.33;;;1.23;;
13347;SDS011;6743;49.934;9.138;2022-10-23T10:30:55;1.20;;;1.10;;
13347;SDS011;6743;49.934;9.138;2022-10-23T10:33:35;1.33;;;1.23;;
13347;SDS011;6743;49.934;9.138;2022-10-23T10:36:11;1.42;;;1.35;;
13347;SDS011;6743;49.934;9.138;2022-10-23T10:38:45;1.15;;;0.90;;
13347;SDS011;6743;49.934;9.138;2022-10-23T10:41:23;1.15;;;1.12;;
13347;SDS011;6743;49.934;9.138;2022-10-23T10:44:16;1.95;;;1.23;;
13347;SDS011;6743;49.934;9.138;2022-10-23T10:47:02;1.77;;;1.20;;
13347;SDS011;6743;49.934;9.138;2022-10-23T10:49:36;1.50;;;1.17;;
13347;SDS011;6743;49.934;9.138;2022-10-23T10:52:09;1.85;;;1.40;;
13347;SDS011;6743;49.934;9.138;2022-10-23T10:54:42;1.30;;;1.20;;
13347;SDS011;6743;49.934;9.138;2022-10-23T10:57:23;1.30;;;1.20;;
13347;SDS011;6743;49.934;9.138;2022-10-23T10:59:56;1.40;;;1.30;;
13347;SDS011;6743;49.934;9.138;2022-10-23T11:02:27;1.12;;;1.10;;
13347;SDS011;6743;49.934;9.138;2022-10-23T11:04:59;1.40;;;1.30;;
13347;SDS011;6743;49.934;9.138;2022-10-23T11:07:38;1.33;;;1.25;;
13347;SDS011;6743;49.934;9.138;2022-10-23T11:10:12;1.08;;;1.08;;
13347;SDS011;6743;49.934;9.138;2022-10-23T11:12:42;1.10;;;1.10;;
13347;SDS011;6743;49.934;9.138;2022-10-23T11:15:16;2.00;;;1.37;;
13347;SDS011;6743;49.934;9.138;2022-10-23T11:17:46;1.10;;;1.10;;
13347;SDS011;6743;49.934;9.138;2022-10-23T11:20:21;1.30;;;1.20;;
13347;SDS011;6743;49.934;9.138;2022-10-23T11:22:56;1.87;;;1.70;;
13347;SDS011;6743;49.934;9.138;2022-10-23T11:28:29;1.30;;;1.20;;
13347;SDS011;6743;49.934;9.138;2022-10-23T11:31:12;2.25;;;1.48;;
13347;SDS011;6743;49.934;9.138;2022-10-23T11:33:53;1.40;;;1.30;;
13347;SDS011;6743;49.934;9.138;2022-10-23T11:36:43;1.55;;;1.08;;
13347;SDS011;6743;49.934;9.138;2022-10-23T11:39:14;1.25;;;1.25;;
13347;SDS011;6743;49.934;9.138;2022-10-23T11:41:46;1.25;;;1.15;;
13347;SDS011;6743;49.934;9.138;2022-10-23T11:44:38;1.70;;;1.42;;
13347;SDS011;6743;49.934;9.138;2022-10-23T11:49:51;1.50;;;1.40;;
13347;SDS011;6743;49.934;9.138;2022-10-23T11:53:00;1.33;;;1.23;;
13347;SDS011;6743;49.934;9.138;2022-10-23T11:55:31;1.23;;;1.12;;
13347;SDS011;6743;49.934;9.138;2022-10-23T11:58:07;0.85;;;0.85;;
13347;SDS011;6743;49.934;9.138;2022-10-23T12:00:50;1.27;;;1.00;;
13347;SDS011;6743;49.934;9.138;2022-10-23T12:03:23;0.93;;;0.93;;
13347;SDS011;6743;49.934;9.138;2022-10-23T12:05:58;1.45;;;1.20;;
13347;SDS011;6743;49.934;9.138;2022-10-23T12:08:28;1.27;;;1.15;;
13347;SDS011;6743;49.934;9.138;2022-10-23T12:10:55;1.37;;;1.27;;
13347;SDS011;6743;49.934;9.138;2022-10-23T12:13:30;1.00;;;1.00;;
13347;SDS011;6743;49.934;9.138;2022-10-23T12:16:09;0.90;;;0.90;;
13347;SDS011;6743;49.934;9.138;2022-10-23T12:18:43;0.80;;;0.80;;
13347;SDS011;6743;49.934;9.138;2022-10-23T12:21:12;1.00;;;1.00;;
13347;SDS011;6743;49.934;9.138;2022-10-23T12:23:45;0.98;;;0.88;;
13347;SDS011;6743;49.934;9.138;2022-10-23T12:26:49;1.30;;;1.20;;
13347;SDS011;6743;49.934;9.138;2022-10-23T12:29:26;1.35;;;1.25;;
13347;SDS011;6743;49.934;9.138;2022-10-23T12:32:20;0.90;;;0.90;;
13347;SDS011;6743;49.934;9.138;2022-10-23T12:35:00;0.90;;;0.90;;
13347;SDS011;6743;49.934;9.138;2022-10-23T12:37:45;0.98;;;0.98;;
13347;SDS011;6743;49.934;9.138;2022-10-23T12:40:21;1.00;;;1.00;;
13347;SDS011;6743;49.934;9.138;2022-10-23T12:42:54;1.58;;;1.48;;
13347;SDS011;6743;49.934;9.138;2022-10-23T12:45:22;0.93;;;0.93;;
13347;SDS011;6743;49.934;9.138;2022-10-23T12:47:51;0.95;;;0.95;;
13347;SDS011;6743;49.934;9.138;2022-10-23T12:50:18;0.90;;;0.90;;
13347;SDS011;6743;49.934;9.138;2022-10-23T12:52:52;0.62;;;0.62;;
13347;SDS011;6743;49.934;9.138;2022-10-23T12:55:19;1.00;;;1.00;;
13347;SDS011;6743;49.934;9.138;2022-10-23T12:57:45;0.65;;;0.65;;
13347;SDS011;6743;49.934;9.138;2022-10-23T13:00:13;1.08;;;1.00;;
13347;SDS011;6743;49.934;9.138;2022-10-23T13:02:41;0.93;;;0.90;;
13347;SDS011;6743;49.934;9.138;2022-10-23T13:05:08;1.00;;;1.00;;
13347;SDS011;6743;49.934;9.138;2022-10-23T13:07:41;1.00;;;1.00;;
13347;SDS011;6743;49.934;9.138;2022-10-23T13:10:10;0.77;;;0.77;;
13347;SDS011;6743;49.934;9.138;2022-10-23T13:12:39;1.10;;;0.80;;
13347;SDS011;6743;49.934;9.138;2022-10-23T13:15:13;0.90;;;0.90;;
13347;SDS011;6743;49.934;9.138;2022-10-23T13:17:42;1.00;;;1.00;;
13347;SDS011;6743;49.934;9.138;2022-10-23T13:20:22;0.62;;;0.62;;
13347;SDS011;6743;49.934;9.138;2022-10-23T13:22:53;0.50;;;0.50;;
13347;SDS011;6743;49.934;9.138;2022-10-23T13:25:25;0.70;;;0.70;;
13347;SDS011;6743;49.934;9.138;2022-10-23T13:28:01;1.02;;;0.95;;
13347;SDS011;6743;49.934;9.138;2022-10-23T13:30:40;0.70;;;0.70;;
13347;SDS011;6743;49.934;9.138;2022-10-23T13:33:14;0.60;;;0.60;;
13347;SDS011;6743;49.934;9.138;2022-10-23T13:35:53;0.70;;;0.70;;
13347;SDS011;6743;49.934;9.138;2022-10-23T13:38:26;0.82;;;0.82;;
13347;SDS011;6743;49.934;9.138;2022-10-23T13:40:54;0.77;;;0.77;;
13347;SDS011;6743;49.934;9.138;2022-10-23T13:43:21;0.55;;;0.55;;
13347;SDS011;6743;49.934;9.138;2022-10-23T13:45:49;0.65;;;0.65;;
13347;SDS011;6743;49.934;9.138;2022-10-23T13:48:15;0.77;;;0.77;;
13347;SDS011;6743;49.934;9.138;2022-10-23T13:50:43;0.55;;;0.55;;
13347;SDS011;6743;49.934;9.138;2022-10-23T13:53:11;0.70;;;0.70;;
13347;SDS011;6743;49.934;9.138;2022-10-23T13:55:37;0.82;;;0.82;;
13347;SDS011;6743;49.934;9.138;2022-10-23T13:58:07;0.80;;;0.80;;
13347;SDS011;6743;49.934;9.138;2022-10-23T14:00:33;0.60;;;0.60;;
13347;SDS011;6743;49.934;9.138;2022-10-23T14:02:59;0.60;;;0.60;;
13347;SDS011;6743;49.934;9.138;2022-10-23T14:05:25;0.70;;;0.70;;
13347;SDS011;6743;49.934;9.138;2022-10-23T14:07:51;0.30;;;0.30;;
13347;SDS011;6743;49.934;9.138;2022-10-23T14:10:17;0.52;;;0.50;;
13347;SDS011;6743;49.934;9.138;2022-10-23T14:12:43;0.40;;;0.40;;
13347;SDS011;6743;49.934;9.138;2022-10-23T14:15:10;0.52;;;0.50;;
13347;SDS011;6743;49.934;9.138;2022-10-23T14:17:36;0.73;;;0.60;;
13347;SDS011;6743;49.934;9.138;2022-10-23T14:20:03;0.62;;;0.62;;
13347;SDS011;6743;49.934;9.138;2022-10-23T14:22:29;0.60;;;0.60;;
13347;SDS011;6743;49.934;9.138;2022-10-23T14:24:55;1.15;;;0.90;;
13347;SDS011;6743;49.934;9.138;2022-10-23T14:27:22;0.57;;;0.57;;
13347;SDS011;6743;49.934;9.138;2022-10-23T14:29:48;0.62;;;0.62;;
13347;SDS011;6743;49.934;9.138;2022-10-23T14:32:14;0.40;;;0.40;;
13347;SDS011;6743;49.934;9.138;2022-10-23T14:34:40;0.60;;;0.60;;
13347;SDS011;6743;49.934;9.138;2022-10-23T14:37:08;0.82;;;0.82;;
13347;SDS011;6743;49.934;9.138;2022-10-23T14:39:34;0.88;;;0.88;;
13347;SDS011;6743;49.934;9.138;2022-10-23T14:42:00;1.05;;;0.80;;
13347;SDS011;6743;49.934;9.138;2022-10-23T14:44:27;0.70;;;0.70;;
13347;SDS011;6743;49.934;9.138;2022-10-23T14:46:53;1.90;;;1.15;;
13347;SDS011;6743;49.934;9.138;2022-10-23T14:49:19;0.90;;;0.90;;
13347;SDS011;6743;49.934;9.138;2022-10-23T14:51:45;1.30;;;0.70;;
13347;SDS011;6743;49.934;9.138;2022-10-23T14:54:10;1.15;;;1.05;;
13347;SDS011;6743;49.934;9.138;2022-10-23T14:56:37;3.65;;;1.92;;
13347;SDS011;6743;49.934;9.138;2022-10-23T14:59:05;3.47;;;2.03;;
13347;SDS011;6743;49.934;9.138;2022-10-23T15:01:33;1.55;;;1.45;;
13347;SDS011;6743;49.934;9.138;2022-10-23T15:04:01;1.80;;;1.40;;
13347;SDS011;6743;49.934;9.138;2022-10-23T15:06:27;3.25;;;1.98;;
13347;SDS011;6743;49.934;9.138;2022-10-23T15:08:53;3.75;;;1.65;;
13347;SDS011;6743;49.934;9.138;2022-10-23T15:11:19;2.37;;;1.55;;
13347;SDS011;6743;49.934;9.138;2022-10-23T15:13:46;2.08;;;1.50;;
13347;SDS011;6743;49.934;9.138;2022-10-23T15:16:12;1.25;;;1.12;;
13347;SDS011;6743;49.934;9.138;2022-10-23T15:18:39;1.62;;;1.52;;
13347;SDS011;6743;49.934;9.138;2022-10-23T15:21:06;2.12;;;1.98;;
13347;SDS011;6743;49.934;9.138;2022-10-23T15:23:33;1.70;;;1.60;;
13347;SDS011;6743;49.934;9.138;2022-10-23T15:26:00;1.30;;;1.20;;
13347;SDS011;6743;49.934;9.138;2022-10-23T15:28:28;1.00;;;1.00;;
13347;SDS011;6743;49.934;9.138;2022-10-23T15:30:55;1.20;;;1.15;;